Bookmark and Share
Track history (hours):
 

Cfl Performer

Last reported at 2014-Apr-16 16:18 UTC. Time now 2014-Apr-17 09:37 UTC.
Position N 37°02' E 012°41'.

Length 118 m; draft 5.8 m.

Type: Cargo ship. MMSI: 244989000.

NotesDate/timePositionNaut miles runAvg speedWind from/ knotsBaromVisibWave heightAir tempDewpointWater temp
2014-Apr-16 16:18N 37°02' E 012°41'57 9.8
2014-Apr-16 10:32N 36°42' E 013°47'1110.2
2014-Apr-16 09:27N 36°39' E 014°00'1010.5
2014-Apr-16 08:32N 36°36' E 014°12'  
2014-Apr-13 14:09N 39°46' E 025°46'  
2014-Apr-11 02:30N 46°06' E 031°04'18 8.4
2014-Apr-11 00:21N 46°23' E 030°55'7 9.3
2014-Apr-10 23:33N 46°31' E 030°55'21 8.7
2014-Apr-10 21:07N 46°35' E 031°25'5 8.5
2014-Apr-10 20:32N 46°35' E 031°32'9 9.6
2014-Apr-10 19:33N 46°36' E 031°46'9 9.0
2014-Apr-10 18:33N 46°33' E 031°59'9 8.6
2014-Apr-10 17:32N 46°33' E 032°11'18 0.5
2014-Apr-09 02:27N 46°37' E 032°37'0 0.0
2014-Apr-09 01:21N 46°37' E 032°37'  
2014-Apr-06 19:30N 46°36' E 032°34'8 8.0
2014-Apr-06 18:33N 46°33' E 032°24'8 7.7
2014-Apr-06 17:33N 46°33' E 032°12'10 9.5
2014-Apr-06 16:33N 46°33' E 031°59'  

Dump ship's entire track history

sailing weather and tide predictions

Cfl Performer — PHLY — position and weather